Time;durP1;ratioP1;P1;durP2;ratioP2;P2;SDS_P1;SDS_P2;PMS_P1;PMS_P2;Temp;Humidity;BMP_temperature;BMP_pressure;BME280_temperature;BME280_humidity;BME280_pressure;Samples;Min_cycle;Max_cycle;Signal;HPM_P1;HPM_P2
2024/02/09 00:01:07;;;;;;;7.00;5.70;;;12.10;70.50;14.00;98530.00;;;;5013864;28;20589;-72
2024/02/09 00:03:35;;;;;;;7.45;5.22;;;12.10;70.50;14.00;98521.00;;;;5013732;28;20584;-72
2024/02/09 00:06:02;;;;;;;7.63;4.97;;;12.10;70.60;14.00;98527.00;;;;5013863;28;20239;-72
2024/02/09 00:08:30;;;;;;;8.55;5.53;;;12.20;70.60;14.10;98522.00;;;;5013155;28;20276;-72
2024/02/09 00:10:57;;;;;;;8.35;5.10;;;12.20;70.70;14.10;98517.00;;;;5015390;28;20228;-72
2024/02/09 00:13:25;;;;;;;7.90;4.43;;;12.20;70.60;14.10;98512.00;;;;5011489;28;20283;-72
2024/02/09 00:15:53;;;;;;;7.97;5.25;;;12.30;70.70;14.10;98512.00;;;;5013467;28;20215;-72
2024/02/09 00:18:20;;;;;;;7.05;4.63;;;12.30;70.80;14.20;98504.00;;;;5026223;28;20282;-72
2024/02/09 00:20:50;;;;;;;4.55;3.85;;;12.30;70.80;14.20;98506.00;;;;5012208;28;20283;-72
2024/02/09 00:23:19;;;;;;;8.20;4.72;;;12.40;70.80;14.30;98497.00;;;;5011655;28;20201;-72
2024/02/09 00:25:49;;;;;;;8.07;4.25;;;12.40;70.90;14.30;98495.00;;;;5013786;28;20658;-72
2024/02/09 00:28:16;;;;;;;6.40;3.97;;;12.50;70.90;14.30;98500.00;;;;5013136;28;20216;-71
2024/02/09 00:30:45;;;;;;;8.80;4.18;;;12.50;71.00;14.40;98483.00;;;;5011746;28;20280;-72
2024/02/09 00:33:12;;;;;;;7.97;4.45;;;12.60;71.20;14.40;98485.00;;;;5009860;28;20316;-72
2024/02/09 00:35:40;;;;;;;10.70;4.35;;;12.60;71.20;14.40;98474.00;;;;5014028;28;20208;-72
2024/02/09 00:38:09;;;;;;;7.10;4.30;;;12.60;71.30;14.50;98466.00;;;;5012989;28;20196;-72
2024/02/09 00:40:36;;;;;;;7.80;4.15;;;12.70;71.40;14.50;98469.00;;;;5011860;28;20236;-72
2024/02/09 00:43:04;;;;;;;7.20;3.55;;;12.70;71.50;14.60;98457.00;;;;5011974;28;20669;-72
2024/02/09 00:45:34;;;;;;;6.38;3.35;;;12.80;71.50;14.60;98454.00;;;;5016457;28;20220;-72
2024/02/09 00:48:02;;;;;;;5.55;2.95;;;12.80;71.50;14.60;98443.00;;;;5013365;28;20259;-72
2024/02/09 00:50:31;;;;;;;6.93;3.35;;;12.90;71.70;14.70;98448.00;;;;5016345;28;20195;-72
2024/02/09 00:53:00;;;;;;;7.53;4.15;;;12.90;71.70;14.70;98439.00;;;;5012522;28;20225;-72
2024/02/09 00:55:29;;;;;;;4.93;2.80;;;13.00;71.70;14.70;98435.00;;;;5011729;28;20213;-72
2024/02/09 00:57:57;;;;;;;6.80;3.45;;;13.00;71.70;14.80;98437.00;;;;5012086;28;20201;-71
2024/02/09 01:00:25;;;;;;;7.40;3.40;;;13.10;71.80;14.80;98427.00;;;;5012618;28;20255;-72
2024/02/09 01:02:52;;;;;;;6.82;4.03;;;13.10;71.70;14.90;98422.00;;;;5013045;28;20656;-72
2024/02/09 01:05:21;;;;;;;7.07;3.45;;;13.20;71.80;14.90;98421.00;;;;5012869;28;20213;-72
2024/02/09 01:07:50;;;;;;;6.28;3.83;;;13.20;72.50;14.90;98420.00;;;;5013645;28;20734;-72
2024/02/09 01:10:18;;;;;;;7.60;4.15;;;13.20;71.80;15.00;98418.00;;;;5012440;28;20201;-72
2024/02/09 02:46:23;;;;;;;5.25;2.90;;;14.00;71.60;15.60;98275.00;;;;5011873;28;20280;-72
2024/02/09 03:05:25;;;;;;;6.75;2.80;;;14.10;71.50;15.70;98249.00;;;;5002867;28;20200;-72
2024/02/09 03:07:52;;;;;;;3.25;2.30;;;14.10;71.50;15.70;98249.00;;;;5014604;28;20266;-72
2024/02/09 03:10:21;;;;;;;4.45;2.55;;;14.10;71.60;15.70;98235.00;;;;5012921;28;20643;-72
2024/02/09 03:12:48;;;;;;;6.55;2.47;;;14.10;71.50;15.70;98241.00;;;;5014771;28;20316;-72
2024/02/09 03:15:18;;;;;;;5.13;2.15;;;14.10;71.60;15.70;98234.00;;;;5015462;28;20295;-72
2024/02/09 03:17:47;;;;;;;6.93;2.88;;;14.10;71.50;15.70;98227.00;;;;5013732;28;20232;-72
2024/02/09 03:20:14;;;;;;;5.05;2.10;;;14.10;71.60;15.70;98226.00;;;;5008038;28;20292;-72
2024/02/09 03:22:41;;;;;;;5.75;2.22;;;14.10;71.50;15.80;98227.00;;;;5014358;28;20192;-72
2024/02/09 03:25:09;;;;;;;6.60;2.25;;;14.10;71.50;15.80;98230.00;;;;5015437;28;20296;-72
2024/02/09 03:27:37;;;;;;;5.50;2.28;;;14.10;71.60;15.80;98211.00;;;;5013793;28;20204;-72
2024/02/09 03:30:09;;;;;;;6.35;2.60;;;14.10;71.60;15.80;98212.00;;;;5013480;28;20734;-72
2024/02/09 03:32:44;;;;;;;4.15;2.72;;;14.10;71.60;15.80;98207.00;;;;5014072;28;20319;-73
2024/02/09 03:35:12;;;;;;;3.55;2.28;;;14.10;71.60;15.80;98211.00;;;;4998876;28;20197;-73
2024/02/09 03:37:44;;;;;;;5.28;2.45;;;14.20;71.60;15.80;98208.00;;;;5012341;28;20208;-73
2024/02/09 03:40:13;;;;;;;5.03;2.28;;;14.20;71.60;15.80;98210.00;;;;5014425;28;20283;-73
2024/02/09 03:42:41;;;;;;;6.22;2.33;;;14.20;71.60;15.80;98208.00;;;;5013007;28;20300;-73
2024/02/09 03:45:08;;;;;;;5.90;2.03;;;14.20;71.60;15.80;98196.00;;;;5014975;28;20189;-73
2024/02/09 03:47:37;;;;;;;6.25;2.55;;;14.20;71.60;15.80;98189.00;;;;5015309;28;20284;-73
2024/02/09 03:50:05;;;;;;;3.53;2.15;;;14.10;71.50;15.80;98186.00;;;;5013983;28;20288;-71
2024/02/09 03:52:32;;;;;;;4.95;2.40;;;14.20;71.60;15.80;98188.00;;;;5013010;28;20318;-71
2024/02/09 03:54:59;;;;;;;6.25;2.80;;;14.20;71.60;15.80;98182.00;;;;5007359;28;20701;-71
2024/02/09 03:57:31;;;;;;;3.95;1.63;;;14.20;71.60;15.70;98174.00;;;;5009666;28;20750;-71
2024/02/09 03:59:58;;;;;;;3.20;1.77;;;14.20;71.60;15.80;98173.00;;;;5018327;28;20630;-71
2024/02/09 04:02:27;;;;;;;8.88;2.00;;;14.20;71.60;15.80;98168.00;;;;5013394;28;20283;-71
2024/02/09 04:04:55;;;;;;;6.18;2.28;;;14.20;71.60;15.80;98165.00;;;;5012576;28;20193;-71
2024/02/09 04:07:22;;;;;;;4.43;2.38;;;14.20;71.60;15.80;98166.00;;;;5013452;28;20232;-72
2024/02/09 04:09:51;;;;;;;3.15;1.65;;;14.20;71.60;15.80;98165.00;;;;5014097;28;20280;-72
2024/02/09 04:12:18;;;;;;;3.83;1.92;;;14.20;71.60;15.80;98164.00;;;;5012512;28;20197;-72
2024/02/09 04:14:45;;;;;;;5.13;1.83;;;14.20;71.60;15.80;98168.00;;;;5013393;28;20308;-71
2024/02/09 04:17:12;;;;;;;2.47;1.45;;;14.20;71.60;15.80;98170.00;;;;5014179;28;20201;-72
2024/02/09 04:19:39;;;;;;;3.58;1.60;;;14.20;71.60;15.80;98167.00;;;;5013041;28;20201;-72
2024/02/09 04:22:10;;;;;;;5.93;2.03;;;14.20;71.60;15.80;98171.00;;;;5013597;28;20292;-72
2024/02/09 04:24:37;;;;;;;2.72;1.67;;;14.20;71.60;15.80;98163.00;;;;5001955;28;20292;-72
2024/02/09 04:27:06;;;;;;;4.05;2.00;;;14.20;71.60;15.80;98166.00;;;;5014157;28;20205;-72
2024/02/09 04:29:33;;;;;;;3.25;1.98;;;14.20;71.60;15.80;98161.00;;;;5013419;28;20283;-72
2024/02/09 04:32:04;;;;;;;4.45;1.63;;;14.20;71.60;15.80;98166.00;;;;5015491;28;20220;-72
2024/02/09 04:34:32;;;;;;;2.35;1.80;;;14.20;71.60;15.80;98156.00;;;;5014735;28;20311;-72
2024/02/09 04:36:59;;;;;;;4.35;1.95;;;14.20;71.60;15.80;98164.00;;;;5013840;28;20197;-72
2024/02/09 04:39:28;;;;;;;3.53;1.50;;;14.20;72.30;15.80;98161.00;;;;5011718;28;20225;-72
2024/02/09 04:41:55;;;;;;;10.77;2.08;;;14.20;71.60;15.80;98159.00;;;;5009404;28;20291;-72
2024/02/09 04:44:23;;;;;;;7.78;2.63;;;14.20;71.60;15.80;98157.00;;;;5011870;28;20267;-72
2024/02/09 04:46:51;;;;;;;3.13;2.00;;;14.20;71.60;15.80;98158.00;;;;5013842;28;20208;-72
2024/02/09 04:49:18;;;;;;;2.92;1.45;;;14.20;71.60;15.80;98153.00;;;;5015619;28;20287;-72
2024/02/09 04:51:47;;;;;;;3.38;1.38;;;14.20;71.60;15.80;98154.00;;;;5011670;28;20300;-72
2024/02/09 04:54:15;;;;;;;3.78;1.50;;;14.20;71.60;15.80;98138.00;;;;5013054;28;20619;-72
2024/02/09 04:56:44;;;;;;;2.85;1.63;;;14.20;71.60;15.80;98144.00;;;;5013327;28;20280;-72
2024/02/09 04:59:12;;;;;;;3.35;1.50;;;14.20;71.60;15.80;98144.00;;;;4997011;28;20198;-72
2024/02/09 05:01:40;;;;;;;1.98;1.02;;;14.20;71.60;15.80;98133.00;;;;5012295;28;20204;-72
2024/02/09 05:04:11;;;;;;;2.67;1.10;;;14.20;71.60;15.80;98143.00;;;;5011626;28;20201;-72
2024/02/09 05:06:39;;;;;;;2.50;1.70;;;14.20;71.70;15.80;98136.00;;;;5012544;28;20259;-72
2024/02/09 05:09:09;;;;;;;2.42;1.40;;;14.20;71.70;15.80;98138.00;;;;5011478;28;20285;-72
2024/02/09 05:11:38;;;;;;;3.75;1.50;;;14.20;71.60;15.80;98136.00;;;;5009974;28;20197;-72
2024/02/09 05:14:07;;;;;;;3.10;1.42;;;14.20;71.70;15.80;98125.00;;;;5012185;28;20698;-73
2024/02/09 05:16:38;;;;;;;2.38;1.40;;;14.20;71.70;15.80;98125.00;;;;5013530;28;20282;-72
2024/02/09 05:19:07;;;;;;;3.83;2.28;;;14.20;71.70;15.80;98125.00;;;;5012954;28;20219;-72
2024/02/09 05:21:35;;;;;;;3.22;1.40;;;14.20;71.60;15.80;98127.00;;;;5012762;28;20296;-72
2024/02/09 05:24:03;;;;;;;1.90;1.25;;;14.20;71.60;15.80;98118.00;;;;5006515;28;20284;-72
2024/02/09 05:26:31;;;;;;;3.88;1.60;;;14.20;71.60;15.80;98123.00;;;;5012140;28;20283;-72
2024/02/09 05:28:58;;;;;;;3.10;1.20;;;14.20;71.60;15.80;98122.00;;;;5012307;28;20194;-72
2024/02/09 05:31:26;;;;;;;4.05;1.45;;;14.20;71.60;15.80;98110.00;;;;5012587;28;20288;-72
2024/02/09 05:33:54;;;;;;;1.80;1.55;;;14.20;71.60;15.80;98119.00;;;;5026143;28;20266;-72
2024/02/09 05:36:21;;;;;;;2.45;1.83;;;14.20;71.60;15.80;98119.00;;;;5030757;28;20203;-72
2024/02/09 05:38:50;;;;;;;5.00;1.48;;;14.20;71.60;15.80;98112.00;;;;5014297;28;20718;-72
2024/02/09 05:41:17;;;;;;;4.30;1.38;;;14.20;71.70;15.90;98110.00;;;;5007567;28;20197;-72
2024/02/09 05:43:44;;;;;;;5.25;1.88;;;14.20;71.60;15.90;98115.00;;;;5007900;28;20303;-72
2024/02/09 05:46:12;;;;;;;4.30;1.40;;;14.20;71.60;15.90;98110.00;;;;5010591;28;20219;-72
2024/02/09 05:48:42;;;;;;;2.72;1.90;;;14.30;71.70;15.80;98111.00;;;;5028635;28;20292;-72
2024/02/09 05:51:13;;;;;;;2.28;1.50;;;14.30;71.60;15.90;98106.00;;;;5022483;28;20216;-72
2024/02/09 05:53:40;;;;;;;2.63;1.85;;;14.20;71.60;15.90;98100.00;;;;5001063;28;20224;-72
2024/02/09 05:56:15;;;;;;;1.85;1.63;;;14.30;71.70;15.80;98101.00;;;;5009402;28;20225;-72
2024/02/09 05:58:43;;;;;;;2.70;1.60;;;14.30;71.70;15.90;98104.00;;;;5013034;28;20596;-72
2024/02/09 06:01:10;;;;;;;3.75;1.55;;;14.30;71.60;15.90;98097.00;;;;5010697;28;20672;-72
2024/02/09 06:03:38;;;;;;;2.63;1.30;;;14.30;71.50;15.90;98102.00;;;;5006984;28;20684;-72
2024/02/09 06:06:10;;;;;;;2.38;1.02;;;14.30;71.50;15.90;98096.00;;;;5010059;28;20197;-72
2024/02/09 06:08:37;;;;;;;6.05;1.73;;;14.30;71.50;15.90;98103.00;;;;4995689;28;20646;-73
2024/02/09 06:11:05;;;;;;;2.15;1.38;;;14.30;71.40;15.90;98103.00;;;;5012121;28;20247;-73
2024/02/09 06:13:32;;;;;;;4.07;1.70;;;14.30;71.40;15.90;98101.00;;;;5009997;28;20252;-73
2024/02/09 06:15:59;;;;;;;5.00;1.20;;;14.30;71.40;15.90;98093.00;;;;5010301;28;20284;-73
2024/02/09 06:18:28;;;;;;;3.35;1.50;;;14.30;71.40;15.90;98094.00;;;;5011899;28;20280;-73
2024/02/09 06:20:58;;;;;;;2.65;1.60;;;14.30;71.40;15.90;98094.00;;;;5008847;28;20673;-73
2024/02/09 06:23:26;;;;;;;4.68;1.45;;;14.30;71.40;15.90;98098.00;;;;5011023;28;20197;-73
2024/02/09 06:25:55;;;;;;;3.92;1.90;;;14.30;71.40;15.90;98091.00;;;;5012168;28;20295;-73
2024/02/09 06:28:22;;;;;;;5.18;1.50;;;14.30;71.40;15.90;98093.00;;;;5011847;28;20255;-72
2024/02/09 06:30:49;;;;;;;2.28;1.23;;;14.30;71.40;15.90;98093.00;;;;5013483;28;20212;-73
2024/02/09 06:33:19;;;;;;;3.67;1.63;;;14.30;71.40;15.90;98091.00;;;;5018028;28;20280;-73
2024/02/09 06:35:46;;;;;;;5.38;1.13;;;14.30;71.40;15.90;98086.00;;;;5010046;28;20204;-73
2024/02/09 06:38:14;;;;;;;4.10;1.30;;;14.30;71.40;15.90;98089.00;;;;5011838;28;20236;-72
2024/02/09 06:40:42;;;;;;;3.92;1.40;;;14.30;71.40;15.90;98086.00;;;;5012134;28;20304;-72
2024/02/09 06:43:09;;;;;;;2.58;1.27;;;14.30;71.40;15.90;98096.00;;;;5011198;28;20299;-72
2024/02/09 06:45:36;;;;;;;2.85;1.45;;;14.30;71.40;15.90;98087.00;;;;5007827;28;20303;-72
2024/02/09 06:48:05;;;;;;;3.53;1.40;;;14.30;71.40;15.90;98089.00;;;;5012381;28;20292;-72
2024/02/09 06:50:34;;;;;;;2.58;1.63;;;14.30;71.40;15.90;98093.00;;;;5010363;28;20248;-72
2024/02/09 06:53:05;;;;;;;3.30;1.50;;;14.30;71.40;15.90;98092.00;;;;5008935;28;20221;-72
2024/02/09 06:55:32;;;;;;;3.78;1.65;;;14.30;71.40;15.90;98089.00;;;;5010124;28;20211;-72
2024/02/09 06:58:02;;;;;;;4.55;1.77;;;14.30;71.40;15.80;98094.00;;;;5010934;28;20284;-72
2024/02/09 07:00:32;;;;;;;4.35;1.83;;;14.30;71.30;15.90;98090.00;;;;5005388;28;20228;-73
2024/02/09 07:03:00;;;;;;;2.65;1.42;;;14.30;71.40;15.80;98090.00;;;;5012113;28;20224;-72
2024/02/09 07:05:27;;;;;;;3.25;1.73;;;14.30;71.40;15.90;98091.00;;;;5009086;28;20197;-72
2024/02/09 07:07:54;;;;;;;3.70;1.30;;;14.30;71.40;15.80;98088.00;;;;4999866;28;20663;-72
2024/02/09 07:10:22;;;;;;;5.25;1.48;;;14.30;71.40;15.90;98093.00;;;;4992134;28;20268;-72
2024/02/09 07:12:51;;;;;;;6.90;1.38;;;14.30;71.40;15.80;98092.00;;;;4991969;28;20204;-72
2024/02/09 07:15:20;;;;;;;4.32;1.65;;;14.30;71.40;15.90;98096.00;;;;4997580;28;20224;-72
2024/02/09 07:17:47;;;;;;;3.10;1.20;;;14.30;71.40;15.90;98093.00;;;;5021830;28;20275;-73
2024/02/09 07:20:16;;;;;;;4.90;1.38;;;14.30;71.40;15.90;98090.00;;;;5031269;28;20204;-72
2024/02/09 07:22:44;;;;;;;2.92;1.70;;;14.30;71.40;15.80;98093.00;;;;5022524;28;20254;-72
2024/02/09 07:25:11;;;;;;;3.40;1.23;;;14.30;71.50;15.90;98096.00;;;;5011257;28;20741;-72
2024/02/09 07:27:39;;;;;;;2.63;1.40;;;14.30;71.50;15.90;98098.00;;;;5011530;28;20292;-72
2024/02/09 07:30:08;;;;;;;3.72;1.20;;;14.30;71.50;15.90;98097.00;;;;5011897;28;20251;-72
2024/02/09 07:32:36;;;;;;;2.47;1.17;;;14.30;71.50;15.90;98103.00;;;;5011780;28;20225;-72
2024/02/09 07:35:05;;;;;;;3.17;1.70;;;14.30;71.50;15.90;98101.00;;;;5011271;28;20320;-72
2024/02/09 07:37:32;;;;;;;6.47;1.45;;;14.30;71.50;15.90;98095.00;;;;5011707;28;20205;-72
2024/02/09 07:40:02;;;;;;;2.55;1.23;;;14.40;71.60;15.90;98099.00;;;;5014906;28;20263;-72
2024/02/09 07:42:29;;;;;;;4.90;1.58;;;14.30;71.50;16.00;98099.00;;;;5011492;28;20204;-72
2024/02/09 07:44:57;;;;;;;2.97;1.27;;;14.40;71.60;16.00;98102.00;;;;5011672;28;20240;-72
2024/02/09 07:47:24;;;;;;;2.33;1.42;;;14.40;71.60;16.00;98102.00;;;;5011365;28;20255;-72
2024/02/09 07:49:53;;;;;;;3.33;1.35;;;14.40;71.60;16.00;98106.00;;;;5011604;28;20351;-73
2024/02/09 07:52:20;;;;;;;3.55;1.30;;;14.40;71.60;16.00;98104.00;;;;5014140;28;20637;-72
2024/02/09 07:54:47;;;;;;;5.07;1.98;;;14.40;71.60;16.00;98110.00;;;;5015067;28;20777;-72
2024/02/09 07:57:14;;;;;;;2.35;1.48;;;14.40;71.60;16.00;98107.00;;;;5027854;28;20283;-72
2024/02/09 07:59:42;;;;;;;2.97;1.45;;;14.40;71.60;16.00;98112.00;;;;5034860;28;20729;-72
2024/02/09 08:02:10;;;;;;;3.17;1.38;;;14.40;71.60;16.00;98112.00;;;;5016418;28;20201;-72
2024/02/09 08:04:38;;;;;;;4.35;1.30;;;14.40;71.60;16.00;98109.00;;;;5014862;28;20197;-72
2024/02/09 08:07:08;;;;;;;2.50;1.23;;;14.40;71.60;16.00;98121.00;;;;5013545;28;20205;-72
2024/02/09 08:09:36;;;;;;;3.35;1.75;;;14.40;71.60;16.00;98100.00;;;;5009917;28;20197;-72
2024/02/09 08:12:04;;;;;;;2.50;2.08;;;14.40;71.70;16.00;98101.00;;;;5014710;28;20208;-72
2024/02/09 08:14:36;;;;;;;2.22;1.30;;;14.40;71.70;16.00;98112.00;;;;5015587;28;20228;-72
2024/02/09 08:17:05;;;;;;;2.78;1.58;;;14.40;71.70;16.00;98107.00;;;;5017522;28;20665;-73
2024/02/09 08:19:33;;;;;;;3.97;1.15;;;14.40;71.70;16.00;98107.00;;;;5034749;28;20570;-72
2024/02/09 08:22:00;;;;;;;3.92;1.70;;;14.50;71.80;16.00;98108.00;;;;5016468;28;20204;-72
2024/02/09 08:24:29;;;;;;;2.97;1.13;;;14.50;71.70;16.00;98112.00;;;;5014740;28;20300;-72
2024/02/09 08:26:56;;;;;;;2.80;1.80;;;14.50;71.70;16.00;98114.00;;;;5014382;28;20750;-72
2024/02/09 08:29:23;;;;;;;3.63;1.50;;;14.50;71.80;16.10;98111.00;;;;5014762;28;20287;-72
2024/02/09 08:31:50;;;;;;;3.28;1.50;;;14.50;71.80;16.10;98113.00;;;;5014768;28;20574;-72
2024/02/09 08:34:19;;;;;;;2.25;1.10;;;14.50;71.80;16.10;98117.00;;;;5014373;28;20804;-72
2024/02/09 08:36:46;;;;;;;2.25;1.30;;;14.50;71.80;16.10;98112.00;;;;5014129;28;20197;-73
2024/02/09 08:39:13;;;;;;;2.03;1.33;;;14.50;71.90;16.20;98118.00;;;;5014185;28;20263;-72
2024/02/09 08:41:41;;;;;;;4.63;1.70;;;14.60;72.00;16.20;98116.00;;;;5014207;28;20296;-73
2024/02/09 08:44:08;;;;;;;4.07;1.83;;;14.60;72.10;16.20;98122.00;;;;5013613;28;20307;-72
2024/02/09 08:46:36;;;;;;;14.48;1.65;;;14.60;72.10;16.20;98116.00;;;;5014197;28;20227;-73
2024/02/09 08:49:03;;;;;;;3.38;1.40;;;14.60;72.00;16.20;98114.00;;;;5032980;28;20206;-73
2024/02/09 08:51:30;;;;;;;2.63;1.60;;;14.70;72.00;16.30;98121.00;;;;5016066;28;20547;-73
2024/02/09 08:53:58;;;;;;;3.20;1.73;;;14.60;72.60;16.30;98124.00;;;;5013803;28;20247;-73
2024/02/09 08:56:26;;;;;;;3.42;2.45;;;14.70;71.90;16.30;98122.00;;;;5014346;28;20286;-73
2024/02/09 08:58:54;;;;;;;4.80;1.63;;;14.70;71.90;16.30;98120.00;;;;5014295;28;20570;-73
2024/02/09 09:01:21;;;;;;;3.85;1.73;;;14.70;71.90;16.30;98120.00;;;;5014013;28;20293;-73
2024/02/09 09:03:48;;;;;;;3.47;1.40;;;14.70;71.90;16.40;98128.00;;;;5014098;28;20307;-73
2024/02/09 09:06:15;;;;;;;1.95;1.48;;;14.70;72.00;16.40;98134.00;;;;5013508;28;20613;-73
2024/02/09 09:08:42;;;;;;;5.20;1.83;;;14.80;72.10;16.40;98126.00;;;;5013712;28;20205;-74
2024/02/09 09:11:11;;;;;;;3.80;1.45;;;14.80;72.00;16.40;98125.00;;;;5013681;28;20324;-73
2024/02/09 09:13:38;;;;;;;3.03;1.30;;;14.90;72.00;16.50;98130.00;;;;5013668;28;20197;-73
2024/02/09 09:16:07;;;;;;;3.72;1.80;;;14.80;71.80;16.40;98131.00;;;;5013301;28;20224;-73
2024/02/09 09:18:34;;;;;;;4.97;1.77;;;14.90;71.90;16.50;98132.00;;;;5013476;28;20201;-73
2024/02/09 09:21:01;;;;;;;2.30;1.23;;;14.90;71.80;16.50;98135.00;;;;5013781;28;20284;-73
2024/02/09 09:23:28;;;;;;;3.83;1.70;;;14.90;71.80;16.50;98130.00;;;;5013756;28;20200;-72
2024/02/09 09:25:55;;;;;;;2.55;1.33;;;14.90;71.80;16.50;98137.00;;;;5013235;28;20203;-71
2024/02/09 09:28:23;;;;;;;1.95;1.15;;;14.90;71.70;16.50;98143.00;;;;5013653;28;20283;-71
2024/02/09 09:30:50;;;;;;;3.03;1.60;;;14.90;71.70;16.50;98146.00;;;;5013601;28;20193;-71
2024/02/09 09:33:18;;;;;;;5.40;1.65;;;14.90;71.80;16.50;98139.00;;;;5013311;28;20646;-72
2024/02/09 09:35:45;;;;;;;2.92;1.42;;;14.90;71.80;16.50;98150.00;;;;5013064;28;20320;-71
2024/02/09 09:38:12;;;;;;;2.55;1.65;;;14.90;71.90;16.60;98148.00;;;;4999143;28;20311;-73
2024/02/09 09:40:41;;;;;;;4.38;1.20;;;15.00;72.00;16.60;98143.00;;;;5013494;28;20315;-72
2024/02/09 09:43:09;;;;;;;3.45;1.48;;;15.00;72.10;16.70;98143.00;;;;5013216;28;20312;-72
2024/02/09 09:45:36;;;;;;;3.03;1.67;;;15.00;72.70;16.70;98146.00;;;;5013029;28;20344;-72
2024/02/09 09:48:07;;;;;;;4.85;1.58;;;15.00;72.10;16.70;98150.00;;;;5013403;28;20239;-71
2024/02/09 09:50:36;;;;;;;2.65;1.48;;;15.10;72.40;16.80;98149.00;;;;5012956;28;20292;-71
2024/02/09 09:53:14;;;;;;;3.10;1.40;;;15.10;72.50;16.90;98151.00;;;;5012976;28;20284;-71
2024/02/09 09:55:46;;;;;;;4.25;1.65;;;15.20;72.60;17.00;98152.00;;;;5021167;28;20228;-72
2024/02/09 09:58:14;;;;;;;4.97;1.65;;;15.30;72.70;17.00;98154.00;;;;5032339;28;20212;-72
2024/02/09 10:00:41;;;;;;;3.28;1.67;;;15.40;72.70;17.10;98163.00;;;;5033183;28;20299;-71
2024/02/09 10:03:09;;;;;;;2.83;1.45;;;15.40;72.50;17.10;98151.00;;;;5032710;28;20196;-72
2024/02/09 10:05:37;;;;;;;1.95;1.70;;;15.50;72.40;17.20;98162.00;;;;5029088;28;20291;-73
2024/02/09 10:08:06;;;;;;;4.22;1.67;;;15.50;72.30;17.20;98167.00;;;;5012717;28;20205;-71
2024/02/09 10:10:33;;;;;;;2.83;1.23;;;15.60;72.20;17.20;98165.00;;;;5012179;28;20207;-72
2024/02/09 10:13:11;;;;;;;3.38;1.85;;;15.60;72.00;17.10;98165.00;;;;5012592;28;20208;-71
2024/02/09 10:15:41;;;;;;;3.85;1.50;;;15.60;71.90;17.30;98176.00;;;;5012685;28;20270;-72
2024/02/09 10:18:10;;;;;;;4.70;1.45;;;15.70;72.60;17.30;98169.00;;;;5012369;28;20200;-71
2024/02/09 10:20:38;;;;;;;2.38;1.38;;;15.70;71.80;17.30;98175.00;;;;5012357;28;20205;-71
2024/02/09 10:23:05;;;;;;;3.35;1.50;;;15.70;71.80;17.30;98180.00;;;;5012516;28;20189;-71
2024/02/09 10:25:33;;;;;;;2.22;1.30;;;15.70;71.70;17.40;98174.00;;;;5012260;28;20284;-73
2024/02/09 10:28:01;;;;;;;2.42;1.55;;;15.80;71.80;17.40;98193.00;;;;5012732;28;20196;-72
2024/02/09 10:30:29;;;;;;;2.70;1.48;;;15.80;71.70;17.40;98185.00;;;;5012951;28;20299;-73
2024/02/09 10:32:57;;;;;;;3.63;1.40;;;15.80;71.60;17.50;98187.00;;;;5012111;28;20200;-72
2024/02/09 10:35:24;;;;;;;3.00;1.65;;;15.90;71.60;17.50;98175.00;;;;5012373;28;20695;-73
2024/02/09 10:37:53;;;;;;;3.00;1.60;;;15.90;71.50;17.50;98194.00;;;;5012286;28;20303;-73
2024/02/09 10:40:21;;;;;;;1.75;1.33;;;15.90;71.50;17.50;98184.00;;;;5011777;28;20303;-73
2024/02/09 10:42:52;;;;;;;4.10;1.27;;;15.90;71.40;17.50;98185.00;;;;5012513;28;20215;-73
2024/02/09 10:45:21;;;;;;;2.35;1.35;;;16.00;71.50;17.60;98186.00;;;;5012211;28;20291;-73
2024/02/09 10:47:54;;;;;;;3.47;1.83;;;16.00;71.40;17.60;98191.00;;;;5029792;28;20295;-73
2024/02/09 10:50:21;;;;;;;2.30;1.60;;;16.00;71.30;17.60;98179.00;;;;5031326;28;20199;-73
2024/02/09 10:52:51;;;;;;;1.95;1.17;;;16.10;71.20;17.60;98192.00;;;;5012211;28;20200;-73
2024/02/09 10:55:23;;;;;;;2.75;1.30;;;16.10;71.30;17.70;98188.00;;;;5011813;28;20225;-73
2024/02/09 10:57:53;;;;;;;3.97;1.70;;;16.10;71.40;17.70;98191.00;;;;5012113;28;20296;-74
2024/02/09 11:00:21;;;;;;;1.88;1.50;;;16.20;71.30;17.80;98203.00;;;;5011659;28;20200;-74
2024/02/09 11:02:48;;;;;;;3.03;1.48;;;16.20;71.30;17.80;98193.00;;;;5012992;28;20694;-73
2024/02/09 11:05:16;;;;;;;4.40;1.50;;;16.20;71.20;17.80;98198.00;;;;5011539;28;20209;-73
2024/02/09 11:07:46;;;;;;;2.70;1.92;;;16.20;71.30;17.80;98195.00;;;;5011135;28;20240;-73
2024/02/09 11:10:15;;;;;;;6.03;2.30;;;16.30;71.30;17.80;98189.00;;;;5011758;28;20197;-73
2024/02/09 11:12:45;;;;;;;2.67;1.92;;;16.30;71.10;17.80;98177.00;;;;5011979;28;20205;-73
2024/02/09 11:15:14;;;;;;;4.10;1.52;;;16.30;70.90;17.80;98190.00;;;;5011795;28;20228;-73
2024/02/09 11:17:46;;;;;;;2.42;1.38;;;16.30;70.70;17.80;98189.00;;;;5011446;28;20284;-73
2024/02/09 11:20:13;;;;;;;3.95;1.92;;;16.30;70.60;17.80;98186.00;;;;5012215;28;20745;-73
2024/02/09 11:22:47;;;;;;;4.20;1.83;;;16.30;70.60;17.80;98191.00;;;;5011729;28;20570;-73
2024/02/09 11:25:16;;;;;;;3.55;1.83;;;16.30;70.50;17.80;98193.00;;;;5013518;28;20212;-73
2024/02/09 11:27:51;;;;;;;2.90;1.70;;;16.30;70.40;17.70;98194.00;;;;5015704;28;20667;-73
2024/02/09 11:30:20;;;;;;;6.97;1.83;;;16.30;70.30;17.80;98188.00;;;;5015367;28;20199;-72
2024/02/09 11:32:49;;;;;;;4.15;1.55;;;16.30;70.40;17.80;98186.00;;;;5015168;28;20209;-73
2024/02/09 11:35:17;;;;;;;3.83;1.80;;;16.30;70.40;17.80;98188.00;;;;5015272;28;20225;-73
2024/02/09 11:37:44;;;;;;;5.07;1.92;;;16.20;70.20;17.70;98185.00;;;;5023889;28;20292;-73
2024/02/09 11:40:13;;;;;;;4.03;1.67;;;16.20;70.30;17.70;98195.00;;;;5034632;28;20235;-73
2024/02/09 11:42:41;;;;;;;4.25;1.60;;;16.20;70.30;17.70;98182.00;;;;5050357;28;20283;-73
2024/02/09 11:45:10;;;;;;;2.08;1.25;;;16.20;70.30;17.70;98196.00;;;;5034200;28;20307;-73
2024/02/09 11:47:38;;;;;;;2.67;1.63;;;16.20;70.40;17.70;98192.00;;;;5015042;28;20203;-73
2024/02/09 11:50:08;;;;;;;5.03;1.45;;;16.20;70.40;17.70;98204.00;;;;5015444;28;20368;-73
2024/02/09 11:52:36;;;;;;;4.32;1.80;;;16.10;70.30;17.70;98200.00;;;;5014999;28;20209;-72
2024/02/09 11:55:04;;;;;;;3.53;1.67;;;16.20;70.30;17.70;98196.00;;;;5025891;28;20224;-74
2024/02/09 11:57:31;;;;;;;4.93;1.80;;;16.20;70.30;17.70;98197.00;;;;5034846;28;20224;-73
2024/02/09 11:59:59;;;;;;;3.00;1.58;;;16.10;70.30;17.70;98194.00;;;;5034806;28;20645;-73
2024/02/09 12:02:31;;;;;;;5.88;1.38;;;16.10;70.40;17.70;98207.00;;;;5022189;28;20216;-72
2024/02/09 12:04:58;;;;;;;2.83;1.50;;;16.20;70.50;17.70;98192.00;;;;5014610;28;20583;-72
2024/02/09 12:07:26;;;;;;;3.67;1.60;;;16.20;70.50;17.70;98195.00;;;;5014748;28;20201;-72
2024/02/09 12:09:55;;;;;;;2.13;1.60;;;16.20;70.40;17.70;98201.00;;;;5014832;28;20193;-72
2024/02/09 12:12:23;;;;;;;1.95;1.27;;;16.20;70.20;17.70;98206.00;;;;5015206;28;20204;-72
2024/02/09 12:14:50;;;;;;;3.55;1.48;;;16.20;70.20;17.70;98196.00;;;;5014593;28;20262;-72
2024/02/09 12:17:17;;;;;;;3.25;1.55;;;16.20;70.20;17.70;98206.00;;;;5014624;28;20284;-73
2024/02/09 12:19:46;;;;;;;3.20;1.40;;;16.20;70.10;17.70;98211.00;;;;5014636;28;20233;-72
2024/02/09 12:22:13;;;;;;;2.53;1.33;;;16.20;70.20;17.80;98211.00;;;;5014820;28;20295;-72
2024/02/09 12:24:44;;;;;;;2.20;0.98;;;16.20;70.30;17.80;98219.00;;;;5014585;28;20204;-72
2024/02/09 12:27:16;;;;;;;4.82;1.58;;;16.20;71.00;17.80;98226.00;;;;5014201;28;20228;-72
2024/02/09 12:29:43;;;;;;;5.32;1.40;;;16.30;70.30;17.80;98220.00;;;;5015072;28;20288;-72
2024/02/09 12:32:11;;;;;;;4.10;1.30;;;16.30;70.20;17.90;98221.00;;;;5014490;28;20701;-72
2024/02/09 12:34:47;;;;;;;2.92;1.30;;;16.30;70.10;17.80;98222.00;;;;5014624;28;20211;-72
2024/02/09 12:37:15;;;;;;;4.30;1.50;;;16.30;69.80;17.90;98220.00;;;;5013977;28;20250;-72
2024/02/09 12:39:42;;;;;;;2.53;1.33;;;16.30;69.80;17.90;98224.00;;;;5005961;28;20233;-72
2024/02/09 12:42:10;;;;;;;2.72;0.95;;;16.40;69.90;17.90;98233.00;;;;5009963;28;20205;-72
2024/02/09 12:44:41;;;;;;;4.55;1.42;;;16.40;69.80;17.90;98217.00;;;;5010377;28;20670;-72
2024/02/09 12:47:08;;;;;;;2.97;1.15;;;16.40;69.60;17.90;98229.00;;;;5010000;28;20205;-72
2024/02/09 12:49:36;;;;;;;2.00;0.75;;;16.40;69.60;17.90;98226.00;;;;5014788;28;20200;-72